sensor_id;sensor_type;location;lat;lon;timestamp;P1;durP1;ratioP1;P2;durP2;ratioP2
22064;SDS011;11197;53.110;8.468;2022-08-16T00:02:09;17.38;;;15.35;;
22064;SDS011;11197;53.110;8.468;2022-08-16T00:04:34;18.33;;;16.42;;
22064;SDS011;11197;53.110;8.468;2022-08-16T00:07:01;16.02;;;14.35;;
22064;SDS011;11197;53.110;8.468;2022-08-16T00:09:27;17.90;;;16.10;;
22064;SDS011;11197;53.110;8.468;2022-08-16T00:11:53;17.17;;;15.48;;
22064;SDS011;11197;53.110;8.468;2022-08-16T00:14:20;17.17;;;15.48;;
22064;SDS011;11197;53.110;8.468;2022-08-16T00:19:17;16.40;;;14.73;;
22064;SDS011;11197;53.110;8.468;2022-08-16T00:21:45;16.10;;;14.43;;
22064;SDS011;11197;53.110;8.468;2022-08-16T00:24:12;16.60;;;14.80;;
22064;SDS011;11197;53.110;8.468;2022-08-16T00:26:40;12.82;;;11.52;;
22064;SDS011;11197;53.110;8.468;2022-08-16T00:29:07;15.15;;;13.18;;
22064;SDS011;11197;53.110;8.468;2022-08-16T00:31:35;15.35;;;13.50;;
22064;SDS011;11197;53.110;8.468;2022-08-16T00:34:01;15.70;;;14.10;;
22064;SDS011;11197;53.110;8.468;2022-08-16T00:36:27;12.98;;;11.68;;
22064;SDS011;11197;53.110;8.468;2022-08-16T00:38:53;14.55;;;13.15;;
22064;SDS011;11197;53.110;8.468;2022-08-16T00:41:20;16.20;;;14.38;;
22064;SDS011;11197;53.110;8.468;2022-08-16T00:43:46;14.25;;;12.85;;
22064;SDS011;11197;53.110;8.468;2022-08-16T00:48:45;16.90;;;15.20;;
22064;SDS011;11197;53.110;8.468;2022-08-16T00:51:13;15.70;;;14.13;;
22064;SDS011;11197;53.110;8.468;2022-08-16T00:53:40;16.58;;;14.43;;
22064;SDS011;11197;53.110;8.468;2022-08-16T00:56:07;17.10;;;15.30;;
22064;SDS011;11197;53.110;8.468;2022-08-16T00:58:37;15.35;;;13.82;;
22064;SDS011;11197;53.110;8.468;2022-08-16T01:01:08;15.63;;;14.00;;
22064;SDS011;11197;53.110;8.468;2022-08-16T01:03:36;16.73;;;15.02;;
22064;SDS011;11197;53.110;8.468;2022-08-16T01:06:03;16.90;;;14.93;;
22064;SDS011;11197;53.110;8.468;2022-08-16T01:08:33;20.65;;;16.17;;
22064;SDS011;11197;53.110;8.468;2022-08-16T01:11:00;16.73;;;14.80;;
22064;SDS011;11197;53.110;8.468;2022-08-16T01:13:29;17.60;;;15.80;;
22064;SDS011;11197;53.110;8.468;2022-08-16T01:15:58;14.20;;;12.77;;
22064;SDS011;11197;53.110;8.468;2022-08-16T01:18:34;17.00;;;15.20;;
22064;SDS011;11197;53.110;8.468;2022-08-16T01:26:59;19.27;;;16.98;;
22064;SDS011;11197;53.110;8.468;2022-08-16T01:29:33;22.73;;;17.10;;
22064;SDS011;11197;53.110;8.468;2022-08-16T01:32:06;19.20;;;17.30;;
22064;SDS011;11197;53.110;8.468;2022-08-16T01:34:32;19.50;;;17.38;;
22064;SDS011;11197;53.110;8.468;2022-08-16T01:37:02;18.70;;;16.70;;
22064;SDS011;11197;53.110;8.468;2022-08-16T01:39:32;18.85;;;16.90;;
22064;SDS011;11197;53.110;8.468;2022-08-16T01:41:59;19.85;;;16.75;;
22064;SDS011;11197;53.110;8.468;2022-08-16T01:44:27;16.75;;;14.93;;
22064;SDS011;11197;53.110;8.468;2022-08-16T01:46:53;19.55;;;16.70;;
22064;SDS011;11197;53.110;8.468;2022-08-16T01:49:23;19.65;;;17.55;;
22064;SDS011;11197;53.110;8.468;2022-08-16T01:51:57;16.83;;;15.13;;
22064;SDS011;11197;53.110;8.468;2022-08-16T01:54:44;17.63;;;15.82;;
22064;SDS011;11197;53.110;8.468;2022-08-16T01:57:10;15.68;;;14.07;;
22064;SDS011;11197;53.110;8.468;2022-08-16T01:59:38;15.02;;;13.52;;
22064;SDS011;11197;53.110;8.468;2022-08-16T02:02:06;17.60;;;14.20;;
22064;SDS011;11197;53.110;8.468;2022-08-16T02:04:34;16.95;;;15.32;;
22064;SDS011;11197;53.110;8.468;2022-08-16T02:07:00;17.15;;;15.30;;
22064;SDS011;11197;53.110;8.468;2022-08-16T02:09:34;16.25;;;14.55;;
22064;SDS011;11197;53.110;8.468;2022-08-16T02:12:03;15.27;;;13.18;;
22064;SDS011;11197;53.110;8.468;2022-08-16T02:14:35;18.88;;;14.73;;
22064;SDS011;11197;53.110;8.468;2022-08-16T02:17:03;15.35;;;13.85;;
22064;SDS011;11197;53.110;8.468;2022-08-16T02:19:31;16.17;;;14.48;;
22064;SDS011;11197;53.110;8.468;2022-08-16T02:21:59;16.88;;;14.65;;
22064;SDS011;11197;53.110;8.468;2022-08-16T02:24:27;18.23;;;16.02;;
22064;SDS011;11197;53.110;8.468;2022-08-16T02:26:53;17.13;;;15.32;;
22064;SDS011;11197;53.110;8.468;2022-08-16T02:29:22;19.20;;;15.50;;
22064;SDS011;11197;53.110;8.468;2022-08-16T02:31:49;17.05;;;14.63;;
22064;SDS011;11197;53.110;8.468;2022-08-16T02:34:17;16.30;;;14.60;;
22064;SDS011;11197;53.110;8.468;2022-08-16T02:36:45;15.50;;;13.77;;
22064;SDS011;11197;53.110;8.468;2022-08-16T02:39:13;15.95;;;14.35;;
22064;SDS011;11197;53.110;8.468;2022-08-16T02:41:44;15.25;;;13.73;;
22064;SDS011;11197;53.110;8.468;2022-08-16T02:44:12;15.82;;;14.23;;
22064;SDS011;11197;53.110;8.468;2022-08-16T02:46:40;13.68;;;11.82;;
22064;SDS011;11197;53.110;8.468;2022-08-16T02:49:06;17.08;;;14.88;;
22064;SDS011;11197;53.110;8.468;2022-08-16T02:51:33;14.68;;;12.32;;
22064;SDS011;11197;53.110;8.468;2022-08-16T02:54:00;14.82;;;13.25;;
22064;SDS011;11197;53.110;8.468;2022-08-16T02:56:26;13.52;;;12.13;;
22064;SDS011;11197;53.110;8.468;2022-08-16T02:58:53;14.57;;;12.93;;
22064;SDS011;11197;53.110;8.468;2022-08-16T03:01:21;16.30;;;13.60;;
22064;SDS011;11197;53.110;8.468;2022-08-16T03:03:51;16.13;;;14.27;;
22064;SDS011;11197;53.110;8.468;2022-08-16T03:06:18;15.98;;;14.32;;
22064;SDS011;11197;53.110;8.468;2022-08-16T03:08:48;17.40;;;14.68;;
22064;SDS011;11197;53.110;8.468;2022-08-16T03:11:15;17.33;;;15.52;;
22064;SDS011;11197;53.110;8.468;2022-08-16T03:13:43;15.15;;;13.60;;
22064;SDS011;11197;53.110;8.468;2022-08-16T03:16:10;17.33;;;15.50;;
22064;SDS011;11197;53.110;8.468;2022-08-16T03:18:38;16.17;;;14.52;;
22064;SDS011;11197;53.110;8.468;2022-08-16T03:21:04;14.48;;;12.68;;
22064;SDS011;11197;53.110;8.468;2022-08-16T03:23:32;14.57;;;13.10;;
22064;SDS011;11197;53.110;8.468;2022-08-16T03:25:58;19.08;;;17.13;;
22064;SDS011;11197;53.110;8.468;2022-08-16T03:28:24;18.70;;;16.50;;
22064;SDS011;11197;53.110;8.468;2022-08-16T03:30:50;14.32;;;12.90;;
22064;SDS011;11197;53.110;8.468;2022-08-16T03:33:18;15.10;;;13.50;;
22064;SDS011;11197;53.110;8.468;2022-08-16T03:35:50;15.38;;;13.07;;
22064;SDS011;11197;53.110;8.468;2022-08-16T03:38:22;16.00;;;14.48;;
22064;SDS011;11197;53.110;8.468;2022-08-16T03:40:50;15.68;;;14.07;;
22064;SDS011;11197;53.110;8.468;2022-08-16T03:43:18;16.40;;;14.45;;
22064;SDS011;11197;53.110;8.468;2022-08-16T03:45:45;15.25;;;13.80;;
22064;SDS011;11197;53.110;8.468;2022-08-16T03:48:12;16.42;;;14.82;;
22064;SDS011;11197;53.110;8.468;2022-08-16T03:50:39;16.60;;;14.90;;
22064;SDS011;11197;53.110;8.468;2022-08-16T03:53:06;14.95;;;13.55;;
22064;SDS011;11197;53.110;8.468;2022-08-16T03:55:33;16.75;;;15.02;;
22064;SDS011;11197;53.110;8.468;2022-08-16T03:58:00;19.67;;;17.38;;
22064;SDS011;11197;53.110;8.468;2022-08-16T04:00:28;16.63;;;14.40;;
22064;SDS011;11197;53.110;8.468;2022-08-16T04:02:59;17.40;;;15.65;;
22064;SDS011;11197;53.110;8.468;2022-08-16T04:05:38;18.95;;;17.10;;
22064;SDS011;11197;53.110;8.468;2022-08-16T04:08:06;19.42;;;16.98;;
22064;SDS011;11197;53.110;8.468;2022-08-16T04:10:32;18.50;;;16.45;;
22064;SDS011;11197;53.110;8.468;2022-08-16T04:12:59;17.80;;;15.93;;
22064;SDS011;11197;53.110;8.468;2022-08-16T04:15:25;23.30;;;19.88;;
22064;SDS011;11197;53.110;8.468;2022-08-16T04:18:13;17.90;;;16.10;;
22064;SDS011;11197;53.110;8.468;2022-08-16T04:20:41;20.02;;;17.92;;
22064;SDS011;11197;53.110;8.468;2022-08-16T04:23:07;20.40;;;18.40;;
22064;SDS011;11197;53.110;8.468;2022-08-16T04:25:36;22.33;;;19.85;;
22064;SDS011;11197;53.110;8.468;2022-08-16T04:28:04;20.20;;;17.95;;
22064;SDS011;11197;53.110;8.468;2022-08-16T04:30:31;23.42;;;20.88;;
22064;SDS011;11197;53.110;8.468;2022-08-16T04:32:57;23.10;;;20.63;;
22064;SDS011;11197;53.110;8.468;2022-08-16T04:35:23;20.77;;;18.60;;
22064;SDS011;11197;53.110;8.468;2022-08-16T04:37:50;22.15;;;19.95;;
22064;SDS011;11197;53.110;8.468;2022-08-16T04:40:21;22.98;;;20.67;;
22064;SDS011;11197;53.110;8.468;2022-08-16T04:42:50;23.48;;;21.05;;
22064;SDS011;11197;53.110;8.468;2022-08-16T04:45:19;23.67;;;21.17;;
22064;SDS011;11197;53.110;8.468;2022-08-16T04:47:46;24.40;;;21.90;;
22064;SDS011;11197;53.110;8.468;2022-08-16T04:50:19;24.90;;;22.08;;
22064;SDS011;11197;53.110;8.468;2022-08-16T04:53:00;24.17;;;21.77;;
22064;SDS011;11197;53.110;8.468;2022-08-16T04:55:30;22.58;;;20.25;;
22064;SDS011;11197;53.110;8.468;2022-08-16T04:57:57;21.52;;;19.25;;
22064;SDS011;11197;53.110;8.468;2022-08-16T05:00:26;22.98;;;20.55;;
22064;SDS011;11197;53.110;8.468;2022-08-16T05:03:05;21.55;;;19.17;;
22064;SDS011;11197;53.110;8.468;2022-08-16T05:05:39;22.30;;;18.67;;
22064;SDS011;11197;53.110;8.468;2022-08-16T05:08:06;23.10;;;20.60;;
22064;SDS011;11197;53.110;8.468;2022-08-16T05:10:33;23.95;;;21.33;;
22064;SDS011;11197;53.110;8.468;2022-08-16T05:13:00;24.25;;;21.83;;
22064;SDS011;11197;53.110;8.468;2022-08-16T05:15:28;23.63;;;21.17;;
22064;SDS011;11197;53.110;8.468;2022-08-16T05:17:54;24.23;;;21.67;;
22064;SDS011;11197;53.110;8.468;2022-08-16T05:20:21;26.42;;;22.75;;
22064;SDS011;11197;53.110;8.468;2022-08-16T05:22:47;27.77;;;23.48;;
22064;SDS011;11197;53.110;8.468;2022-08-16T05:25:17;24.77;;;22.30;;
22064;SDS011;11197;53.110;8.468;2022-08-16T05:27:48;25.67;;;22.92;;
22064;SDS011;11197;53.110;8.468;2022-08-16T05:30:18;21.42;;;19.08;;
22064;SDS011;11197;53.110;8.468;2022-08-16T05:32:44;26.65;;;22.95;;
22064;SDS011;11197;53.110;8.468;2022-08-16T05:35:12;26.33;;;21.88;;
22064;SDS011;11197;53.110;8.468;2022-08-16T05:37:48;21.88;;;19.52;;
22064;SDS011;11197;53.110;8.468;2022-08-16T05:40:15;23.02;;;20.63;;
22064;SDS011;11197;53.110;8.468;2022-08-16T05:42:42;24.55;;;21.42;;
22064;SDS011;11197;53.110;8.468;2022-08-16T05:45:08;25.05;;;22.35;;
22064;SDS011;11197;53.110;8.468;2022-08-16T05:47:36;24.55;;;21.83;;
22064;SDS011;11197;53.110;8.468;2022-08-16T05:50:03;26.27;;;22.15;;
22064;SDS011;11197;53.110;8.468;2022-08-16T05:52:31;27.25;;;23.85;;
22064;SDS011;11197;53.110;8.468;2022-08-16T05:54:57;29.10;;;22.60;;
22064;SDS011;11197;53.110;8.468;2022-08-16T05:57:23;22.30;;;19.23;;
22064;SDS011;11197;53.110;8.468;2022-08-16T05:59:51;31.80;;;23.65;;
22064;SDS011;11197;53.110;8.468;2022-08-16T06:02:18;28.33;;;23.77;;
22064;SDS011;11197;53.110;8.468;2022-08-16T06:04:48;28.08;;;23.65;;
22064;SDS011;11197;53.110;8.468;2022-08-16T06:07:17;25.95;;;22.73;;
22064;SDS011;11197;53.110;8.468;2022-08-16T06:09:49;25.50;;;22.30;;
22064;SDS011;11197;53.110;8.468;2022-08-16T06:12:16;27.50;;;24.50;;
22064;SDS011;11197;53.110;8.468;2022-08-16T06:14:43;22.88;;;19.30;;
22064;SDS011;11197;53.110;8.468;2022-08-16T06:17:10;27.90;;;23.63;;
22064;SDS011;11197;53.110;8.468;2022-08-16T06:19:36;27.52;;;23.98;;
22064;SDS011;11197;53.110;8.468;2022-08-16T06:22:11;27.50;;;24.60;;
22064;SDS011;11197;53.110;8.468;2022-08-16T06:24:38;30.88;;;23.92;;
22064;SDS011;11197;53.110;8.468;2022-08-16T06:27:05;28.27;;;23.15;;
22064;SDS011;11197;53.110;8.468;2022-08-16T06:29:33;27.40;;;22.70;;
22064;SDS011;11197;53.110;8.468;2022-08-16T06:31:59;23.58;;;21.05;;
22064;SDS011;11197;53.110;8.468;2022-08-16T06:34:27;27.05;;;22.08;;
22064;SDS011;11197;53.110;8.468;2022-08-16T06:36:56;27.13;;;22.17;;
22064;SDS011;11197;53.110;8.468;2022-08-16T06:39:23;27.13;;;23.88;;
22064;SDS011;11197;53.110;8.468;2022-08-16T06:41:58;25.92;;;22.40;;
22064;SDS011;11197;53.110;8.468;2022-08-16T06:44:48;29.80;;;22.58;;
22064;SDS011;11197;53.110;8.468;2022-08-16T06:47:40;26.58;;;22.05;;
22064;SDS011;11197;53.110;8.468;2022-08-16T06:50:07;25.90;;;22.90;;
22064;SDS011;11197;53.110;8.468;2022-08-16T06:52:46;27.13;;;23.73;;
22064;SDS011;11197;53.110;8.468;2022-08-16T06:55:14;26.30;;;20.38;;
22064;SDS011;11197;53.110;8.468;2022-08-16T06:57:49;25.65;;;20.38;;
22064;SDS011;11197;53.110;8.468;2022-08-16T07:00:17;27.20;;;22.00;;
22064;SDS011;11197;53.110;8.468;2022-08-16T07:02:55;27.52;;;22.42;;
22064;SDS011;11197;53.110;8.468;2022-08-16T07:05:21;29.33;;;21.75;;
22064;SDS011;11197;53.110;8.468;2022-08-16T07:08:11;24.40;;;20.67;;
22064;SDS011;11197;53.110;8.468;2022-08-16T07:10:39;24.00;;;21.08;;
22064;SDS011;11197;53.110;8.468;2022-08-16T07:13:05;23.15;;;20.65;;
22064;SDS011;11197;53.110;8.468;2022-08-16T07:15:33;24.45;;;20.88;;
22064;SDS011;11197;53.110;8.468;2022-08-16T07:17:59;23.35;;;19.15;;
22064;SDS011;11197;53.110;8.468;2022-08-16T07:20:26;22.83;;;19.15;;
22064;SDS011;11197;53.110;8.468;2022-08-16T07:22:54;22.70;;;19.90;;
22064;SDS011;11197;53.110;8.468;2022-08-16T07:25:40;24.20;;;19.70;;
22064;SDS011;11197;53.110;8.468;2022-08-16T07:28:09;24.80;;;18.80;;
22064;SDS011;11197;53.110;8.468;2022-08-16T07:30:40;20.98;;;17.77;;
22064;SDS011;11197;53.110;8.468;2022-08-16T07:33:11;21.98;;;17.85;;
22064;SDS011;11197;53.110;8.468;2022-08-16T07:35:39;24.90;;;18.05;;
22064;SDS011;11197;53.110;8.468;2022-08-16T07:38:05;18.63;;;16.63;;
22064;SDS011;11197;53.110;8.468;2022-08-16T07:40:41;20.30;;;15.40;;
22064;SDS011;11197;53.110;8.468;2022-08-16T07:43:07;22.58;;;17.95;;
22064;SDS011;11197;53.110;8.468;2022-08-16T07:45:34;21.13;;;17.70;;
22064;SDS011;11197;53.110;8.468;2022-08-16T07:48:00;22.60;;;17.80;;
22064;SDS011;11197;53.110;8.468;2022-08-16T07:50:27;21.15;;;17.25;;
22064;SDS011;11197;53.110;8.468;2022-08-16T07:52:53;18.73;;;16.58;;
22064;SDS011;11197;53.110;8.468;2022-08-16T07:55:19;22.20;;;18.13;;
22064;SDS011;11197;53.110;8.468;2022-08-16T07:57:46;25.75;;;18.42;;
22064;SDS011;11197;53.110;8.468;2022-08-16T08:00:13;22.52;;;18.85;;
22064;SDS011;11197;53.110;8.468;2022-08-16T08:02:45;24.02;;;17.50;;
22064;SDS011;11197;53.110;8.468;2022-08-16T08:05:18;21.77;;;18.30;;
22064;SDS011;11197;53.110;8.468;2022-08-16T08:07:45;20.10;;;18.00;;
22064;SDS011;11197;53.110;8.468;2022-08-16T08:10:11;23.52;;;17.60;;
22064;SDS011;11197;53.110;8.468;2022-08-16T08:12:38;21.95;;;17.15;;
22064;SDS011;11197;53.110;8.468;2022-08-16T08:15:05;15.48;;;13.38;;
22064;SDS011;11197;53.110;8.468;2022-08-16T08:17:33;20.05;;;16.98;;
22064;SDS011;11197;53.110;8.468;2022-08-16T08:20:04;21.05;;;15.82;;
22064;SDS011;11197;53.110;8.468;2022-08-16T08:22:31;21.00;;;17.73;;
22064;SDS011;11197;53.110;8.468;2022-08-16T08:25:02;26.95;;;17.30;;
22064;SDS011;11197;53.110;8.468;2022-08-16T08:27:33;18.70;;;16.63;;
22064;SDS011;11197;53.110;8.468;2022-08-16T08:30:01;21.48;;;15.75;;
22064;SDS011;11197;53.110;8.468;2022-08-16T08:32:31;19.92;;;15.77;;
22064;SDS011;11197;53.110;8.468;2022-08-16T08:35:05;22.33;;;16.25;;
22064;SDS011;11197;53.110;8.468;2022-08-16T08:37:44;22.27;;;15.68;;
22064;SDS011;11197;53.110;8.468;2022-08-16T08:40:11;20.73;;;14.65;;
22064;SDS011;11197;53.110;8.468;2022-08-16T08:42:37;19.20;;;14.32;;
22064;SDS011;11197;53.110;8.468;2022-08-16T08:45:09;20.60;;;15.27;;
22064;SDS011;11197;53.110;8.468;2022-08-16T08:47:37;22.27;;;14.30;;
22064;SDS011;11197;53.110;8.468;2022-08-16T08:50:04;21.48;;;14.85;;
22064;SDS011;11197;53.110;8.468;2022-08-16T08:52:32;22.63;;;13.98;;
22064;SDS011;11197;53.110;8.468;2022-08-16T08:54:58;19.65;;;14.20;;
22064;SDS011;11197;53.110;8.468;2022-08-16T08:57:29;21.67;;;14.27;;
22064;SDS011;11197;53.110;8.468;2022-08-16T09:00:13;19.15;;;14.02;;
22064;SDS011;11197;53.110;8.468;2022-08-16T09:02:42;19.35;;;14.20;;
22064;SDS011;11197;53.110;8.468;2022-08-16T09:05:09;19.08;;;13.90;;
22064;SDS011;11197;53.110;8.468;2022-08-16T09:07:35;15.45;;;12.90;;
22064;SDS011;11197;53.110;8.468;2022-08-16T09:10:03;16.83;;;13.25;;
22064;SDS011;11197;53.110;8.468;2022-08-16T09:12:32;16.52;;;14.32;;
22064;SDS011;11197;53.110;8.468;2022-08-16T09:15:10;15.57;;;13.63;;
22064;SDS011;11197;53.110;8.468;2022-08-16T09:17:37;18.40;;;12.18;;
22064;SDS011;11197;53.110;8.468;2022-08-16T09:20:04;13.65;;;11.27;;
22064;SDS011;11197;53.110;8.468;2022-08-16T09:22:33;17.00;;;12.18;;
22064;SDS011;11197;53.110;8.468;2022-08-16T09:24:59;14.70;;;10.98;;
22064;SDS011;11197;53.110;8.468;2022-08-16T09:27:25;12.15;;;10.00;;
22064;SDS011;11197;53.110;8.468;2022-08-16T09:29:54;16.83;;;12.07;;
22064;SDS011;11197;53.110;8.468;2022-08-16T09:32:20;16.40;;;11.20;;
22064;SDS011;11197;53.110;8.468;2022-08-16T09:34:46;16.05;;;12.00;;
22064;SDS011;11197;53.110;8.468;2022-08-16T09:37:12;14.10;;;10.15;;
22064;SDS011;11197;53.110;8.468;2022-08-16T09:39:40;14.40;;;10.98;;
22064;SDS011;11197;53.110;8.468;2022-08-16T09:42:07;11.88;;;9.32;;
22064;SDS011;11197;53.110;8.468;2022-08-16T09:44:33;11.27;;;9.05;;
22064;SDS011;11197;53.110;8.468;2022-08-16T09:47:00;15.93;;;9.82;;
22064;SDS011;11197;53.110;8.468;2022-08-16T09:49:28;13.57;;;9.93;;
22064;SDS011;11197;53.110;8.468;2022-08-16T09:51:54;12.45;;;10.05;;
22064;SDS011;11197;53.110;8.468;2022-08-16T09:54:22;11.60;;;9.40;;
22064;SDS011;11197;53.110;8.468;2022-08-16T09:56:49;11.95;;;8.88;;
22064;SDS011;11197;53.110;8.468;2022-08-16T09:59:15;14.38;;;8.23;;
22064;SDS011;11197;53.110;8.468;2022-08-16T10:01:42;10.57;;;8.43;;
22064;SDS011;11197;53.110;8.468;2022-08-16T10:04:14;9.20;;;7.65;;
22064;SDS011;11197;53.110;8.468;2022-08-16T10:06:40;7.65;;;6.40;;
22064;SDS011;11197;53.110;8.468;2022-08-16T10:09:08;9.98;;;6.70;;
22064;SDS011;11197;53.110;8.468;2022-08-16T10:11:35;10.63;;;6.85;;
22064;SDS011;11197;53.110;8.468;2022-08-16T10:14:24;7.68;;;5.90;;
22064;SDS011;11197;53.110;8.468;2022-08-16T10:16:58;8.63;;;6.30;;
22064;SDS011;11197;53.110;8.468;2022-08-16T10:19:26;9.15;;;5.47;;
22064;SDS011;11197;53.110;8.468;2022-08-16T10:21:54;6.90;;;5.43;;
22064;SDS011;11197;53.110;8.468;2022-08-16T10:24:20;7.63;;;5.43;;
22064;SDS011;11197;53.110;8.468;2022-08-16T10:26:47;7.95;;;5.32;;
22064;SDS011;11197;53.110;8.468;2022-08-16T10:29:17;10.30;;;5.20;;
22064;SDS011;11197;53.110;8.468;2022-08-16T10:31:44;8.80;;;5.47;;
22064;SDS011;11197;53.110;8.468;2022-08-16T10:34:10;8.70;;;5.97;;
22064;SDS011;11197;53.110;8.468;2022-08-16T10:36:38;9.18;;;5.93;;
22064;SDS011;11197;53.110;8.468;2022-08-16T10:39:04;8.18;;;6.20;;
22064;SDS011;11197;53.110;8.468;2022-08-16T10:41:32;8.15;;;6.40;;
22064;SDS011;11197;53.110;8.468;2022-08-16T10:43:59;9.35;;;7.25;;
22064;SDS011;11197;53.110;8.468;2022-08-16T10:46:25;8.00;;;6.43;;
22064;SDS011;11197;53.110;8.468;2022-08-16T10:51:27;10.52;;;7.30;;
22064;SDS011;11197;53.110;8.468;2022-08-16T10:53:53;11.13;;;8.20;;
22064;SDS011;11197;53.110;8.468;2022-08-16T10:56:18;11.55;;;7.10;;
22064;SDS011;11197;53.110;8.468;2022-08-16T10:58:44;10.27;;;5.85;;
22064;SDS011;11197;53.110;8.468;2022-08-16T11:01:10;13.55;;;7.18;;
22064;SDS011;11197;53.110;8.468;2022-08-16T11:03:40;9.23;;;6.57;;
22064;SDS011;11197;53.110;8.468;2022-08-16T11:06:06;10.27;;;6.18;;
22064;SDS011;11197;53.110;8.468;2022-08-16T11:08:34;11.50;;;6.97;;
22064;SDS011;11197;53.110;8.468;2022-08-16T11:11:02;8.95;;;6.10;;
22064;SDS011;11197;53.110;8.468;2022-08-16T11:13:29;11.65;;;5.22;;
22064;SDS011;11197;53.110;8.468;2022-08-16T11:15:55;9.05;;;5.00;;
22064;SDS011;11197;53.110;8.468;2022-08-16T11:18:21;7.32;;;4.88;;
22064;SDS011;11197;53.110;8.468;2022-08-16T11:20:47;8.38;;;4.70;;
22064;SDS011;11197;53.110;8.468;2022-08-16T11:23:13;8.95;;;5.13;;
22064;SDS011;11197;53.110;8.468;2022-08-16T11:25:39;7.93;;;4.97;;
22064;SDS011;11197;53.110;8.468;2022-08-16T11:28:07;7.95;;;4.70;;
22064;SDS011;11197;53.110;8.468;2022-08-16T11:30:34;8.50;;;4.88;;
22064;SDS011;11197;53.110;8.468;2022-08-16T11:33:01;9.95;;;4.90;;
22064;SDS011;11197;53.110;8.468;2022-08-16T11:35:28;6.50;;;4.72;;
22064;SDS011;11197;53.110;8.468;2022-08-16T11:38:02;9.75;;;5.28;;
22064;SDS011;11197;53.110;8.468;2022-08-16T11:40:37;19.98;;;6.35;;
22064;SDS011;11197;53.110;8.468;2022-08-16T11:43:12;9.02;;;5.18;;
22064;SDS011;11197;53.110;8.468;2022-08-16T11:45:39;9.02;;;4.90;;
22064;SDS011;11197;53.110;8.468;2022-08-16T11:48:05;7.28;;;5.07;;
22064;SDS011;11197;53.110;8.468;2022-08-16T11:50:31;11.75;;;5.47;;
22064;SDS011;11197;53.110;8.468;2022-08-16T11:52:59;7.25;;;5.20;;
22064;SDS011;11197;53.110;8.468;2022-08-16T11:55:26;7.32;;;4.85;;
22064;SDS011;11197;53.110;8.468;2022-08-16T11:57:52;7.55;;;5.32;;
22064;SDS011;11197;53.110;8.468;2022-08-16T12:00:18;8.50;;;5.55;;
22064;SDS011;11197;53.110;8.468;2022-08-16T12:02:44;8.50;;;5.30;;
22064;SDS011;11197;53.110;8.468;2022-08-16T12:05:11;8.57;;;5.32;;
22064;SDS011;11197;53.110;8.468;2022-08-16T12:07:43;8.50;;;5.53;;
22064;SDS011;11197;53.110;8.468;2022-08-16T12:10:13;6.47;;;5.03;;
22064;SDS011;11197;53.110;8.468;2022-08-16T12:12:41;7.13;;;4.97;;
22064;SDS011;11197;53.110;8.468;2022-08-16T12:15:08;7.90;;;6.00;;
22064;SDS011;11197;53.110;8.468;2022-08-16T12:17:36;11.57;;;5.50;;
22064;SDS011;11197;53.110;8.468;2022-08-16T12:20:05;9.35;;;5.35;;
22064;SDS011;11197;53.110;8.468;2022-08-16T12:22:34;7.93;;;5.30;;
22064;SDS011;11197;53.110;8.468;2022-08-16T12:25:02;8.88;;;5.30;;
22064;SDS011;11197;53.110;8.468;2022-08-16T12:27:29;7.38;;;5.22;;
22064;SDS011;11197;53.110;8.468;2022-08-16T12:29:55;8.93;;;5.15;;
22064;SDS011;11197;53.110;8.468;2022-08-16T12:32:21;8.63;;;5.20;;
22064;SDS011;11197;53.110;8.468;2022-08-16T12:34:47;7.38;;;4.70;;
22064;SDS011;11197;53.110;8.468;2022-08-16T12:37:14;8.63;;;4.68;;
22064;SDS011;11197;53.110;8.468;2022-08-16T12:39:40;9.45;;;4.65;;
22064;SDS011;11197;53.110;8.468;2022-08-16T12:42:08;6.85;;;4.68;;
22064;SDS011;11197;53.110;8.468;2022-08-16T12:44:35;5.43;;;4.32;;
22064;SDS011;11197;53.110;8.468;2022-08-16T12:47:02;6.47;;;4.43;;
22064;SDS011;11197;53.110;8.468;2022-08-16T12:49:47;8.05;;;4.53;;
22064;SDS011;11197;53.110;8.468;2022-08-16T12:52:13;8.52;;;4.90;;
22064;SDS011;11197;53.110;8.468;2022-08-16T12:54:39;9.80;;;4.95;;
22064;SDS011;11197;53.110;8.468;2022-08-16T12:57:06;7.40;;;4.90;;
22064;SDS011;11197;53.110;8.468;2022-08-16T12:59:32;6.82;;;4.88;;
22064;SDS011;11197;53.110;8.468;2022-08-16T13:01:59;5.90;;;4.40;;
22064;SDS011;11197;53.110;8.468;2022-08-16T13:04:27;7.40;;;4.80;;
22064;SDS011;11197;53.110;8.468;2022-08-16T13:06:54;7.28;;;4.80;;
22064;SDS011;11197;53.110;8.468;2022-08-16T13:09:23;6.50;;;4.43;;
22064;SDS011;11197;53.110;8.468;2022-08-16T13:14:25;7.35;;;4.30;;
22064;SDS011;11197;53.110;8.468;2022-08-16T13:16:53;6.43;;;4.80;;
22064;SDS011;11197;53.110;8.468;2022-08-16T13:19:19;6.97;;;4.47;;
22064;SDS011;11197;53.110;8.468;2022-08-16T13:21:45;7.07;;;4.32;;
22064;SDS011;11197;53.110;8.468;2022-08-16T13:24:11;5.90;;;4.65;;
22064;SDS011;11197;53.110;8.468;2022-08-16T13:26:38;8.32;;;4.57;;
22064;SDS011;11197;53.110;8.468;2022-08-16T13:29:04;6.60;;;4.78;;
22064;SDS011;11197;53.110;8.468;2022-08-16T13:31:30;6.22;;;4.13;;
22064;SDS011;11197;53.110;8.468;2022-08-16T13:33:56;7.38;;;4.45;;
22064;SDS011;11197;53.110;8.468;2022-08-16T13:36:22;5.20;;;4.32;;
22064;SDS011;11197;53.110;8.468;2022-08-16T13:38:48;10.40;;;4.20;;
22064;SDS011;11197;53.110;8.468;2022-08-16T13:41:14;9.43;;;4.50;;
22064;SDS011;11197;53.110;8.468;2022-08-16T13:43:40;7.18;;;3.95;;
22064;SDS011;11197;53.110;8.468;2022-08-16T13:46:06;12.02;;;4.03;;
22064;SDS011;11197;53.110;8.468;2022-08-16T13:48:33;6.43;;;3.90;;
22064;SDS011;11197;53.110;8.468;2022-08-16T13:50:59;5.50;;;4.10;;
22064;SDS011;11197;53.110;8.468;2022-08-16T13:53:25;5.13;;;4.00;;
22064;SDS011;11197;53.110;8.468;2022-08-16T13:55:55;5.40;;;4.13;;
22064;SDS011;11197;53.110;8.468;2022-08-16T13:58:21;5.00;;;4.30;;
22064;SDS011;11197;53.110;8.468;2022-08-16T14:00:49;5.28;;;4.20;;
22064;SDS011;11197;53.110;8.468;2022-08-16T14:03:15;5.32;;;4.07;;
22064;SDS011;11197;53.110;8.468;2022-08-16T14:05:41;7.55;;;3.95;;
22064;SDS011;11197;53.110;8.468;2022-08-16T14:08:07;5.88;;;4.40;;
22064;SDS011;11197;53.110;8.468;2022-08-16T14:10:33;6.25;;;4.30;;
22064;SDS011;11197;53.110;8.468;2022-08-16T14:12:59;5.85;;;3.70;;
22064;SDS011;11197;53.110;8.468;2022-08-16T14:15:26;4.53;;;3.83;;
22064;SDS011;11197;53.110;8.468;2022-08-16T14:17:52;4.80;;;3.60;;
22064;SDS011;11197;53.110;8.468;2022-08-16T14:20:18;7.20;;;4.35;;
22064;SDS011;11197;53.110;8.468;2022-08-16T14:22:44;6.22;;;4.32;;
22064;SDS011;11197;53.110;8.468;2022-08-16T14:27:42;4.88;;;3.90;;
22064;SDS011;11197;53.110;8.468;2022-08-16T14:30:09;7.32;;;3.95;;
22064;SDS011;11197;53.110;8.468;2022-08-16T14:32:36;6.55;;;3.70;;
22064;SDS011;11197;53.110;8.468;2022-08-16T14:35:05;4.90;;;4.18;;
22064;SDS011;11197;53.110;8.468;2022-08-16T14:37:35;6.25;;;4.30;;
22064;SDS011;11197;53.110;8.468;2022-08-16T14:40:02;4.97;;;4.15;;
22064;SDS011;11197;53.110;8.468;2022-08-16T14:42:32;6.97;;;4.28;;
22064;SDS011;11197;53.110;8.468;2022-08-16T14:44:58;4.43;;;4.03;;
22064;SDS011;11197;53.110;8.468;2022-08-16T14:47:25;4.50;;;4.00;;
22064;SDS011;11197;53.110;8.468;2022-08-16T14:49:51;4.97;;;3.92;;
22064;SDS011;11197;53.110;8.468;2022-08-16T14:52:19;5.65;;;4.10;;
22064;SDS011;11197;53.110;8.468;2022-08-16T14:54:48;5.15;;;3.88;;
22064;SDS011;11197;53.110;8.468;2022-08-16T14:57:15;4.65;;;3.85;;